Time;durP1;ratioP1;P1;durP2;ratioP2;P2;SDS_P1;SDS_P2;PMS_P1;PMS_P2;Temp;Humidity;BMP_temperature;BMP_pressure;BME280_temperature;BME280_humidity;BME280_pressure;Samples;Min_cycle;Max_cycle;Signal;HPM_P1;HPM_P2
2022/11/09 00:00:50;;;;;;;54.10;31.37;;;;;;;1.22;100.00;98212.07;1714127;82;21475;-83
2022/11/09 00:03:17;;;;;;;65.28;31.48;;;;;;;1.25;100.00;98213.48;1714079;82;20974;-80
2022/11/09 00:05:55;;;;;;;66.82;35.55;;;;;;;1.20;100.00;98213.30;1714095;83;20975;-83
2022/11/09 00:08:22;;;;;;;60.52;32.95;;;;;;;1.16;100.00;98213.44;1714238;83;21466;-81
2022/11/09 00:10:49;;;;;;;68.78;33.75;;;;;;;1.12;100.00;98210.39;1714083;83;21006;-83
2022/11/09 00:13:16;;;;;;;65.32;32.88;;;;;;;1.09;100.00;98212.95;1713990;83;21438;-84
2022/11/09 00:15:43;;;;;;;58.75;34.67;;;;;;;1.08;100.00;98208.65;1714091;83;21035;-83
2022/11/09 00:18:10;;;;;;;65.50;34.27;;;;;;;1.01;100.00;98215.87;1714154;83;20968;-80
2022/11/09 00:20:37;;;;;;;67.10;34.98;;;;;;;0.97;100.00;98214.67;1717076;83;21023;-83
2022/11/09 00:23:03;;;;;;;56.70;31.50;;;;;;;0.98;100.00;98206.16;1719210;83;20983;-81
2022/11/09 00:25:30;;;;;;;68.52;36.13;;;;;;;0.96;100.00;98214.38;1719318;83;21016;-81
2022/11/09 00:27:57;;;;;;;63.48;33.85;;;;;;;0.99;100.00;98214.45;1719171;83;21421;-80
2022/11/09 00:30:25;;;;;;;77.58;36.25;;;;;;;1.01;100.00;98219.05;1719316;83;21048;-80
2022/11/09 00:32:52;;;;;;;71.50;35.47;;;;;;;0.98;100.00;98218.98;1685830;83;21509;-83
2022/11/09 00:35:19;;;;;;;72.30;38.98;;;;;;;0.94;100.00;98217.78;1685217;84;21069;-80
2022/11/09 00:37:46;;;;;;;63.58;31.10;;;;;;;0.95;100.00;98223.93;1685581;83;21041;-80
2022/11/09 00:40:13;;;;;;;57.35;29.27;;;;;;;0.88;100.00;98222.63;1685488;85;20962;-83
2022/11/09 00:42:40;;;;;;;60.33;31.50;;;;;;;0.89;100.00;98222.11;1685579;83;20985;-83
2022/11/09 00:45:07;;;;;;;64.50;30.90;;;;;;;0.87;100.00;98226.33;1685580;85;20977;-84
2022/11/09 00:47:34;;;;;;;53.48;30.90;;;;;;;0.87;100.00;98226.84;1685566;83;21468;-82
2022/11/09 00:50:01;;;;;;;60.48;31.90;;;;;;;0.84;100.00;98227.55;1685582;85;20981;-80
2022/11/09 00:52:28;;;;;;;89.92;45.70;;;;;;;0.84;100.00;98226.21;1685664;83;21409;-80
2022/11/09 00:54:55;;;;;;;75.40;40.00;;;;;;;0.78;100.00;98227.08;1675827;85;21040;-84
2022/11/09 00:57:22;;;;;;;64.03;34.03;;;;;;;0.79;100.00;98230.56;1685313;83;21030;-81
2022/11/09 00:59:48;;;;;;;54.75;30.00;;;;;;;0.76;100.00;98227.78;1685670;85;21431;-83
2022/11/09 01:02:15;;;;;;;61.42;28.92;;;;;;;0.75;100.00;98238.67;1685309;83;21574;-80
2022/11/09 01:04:42;;;;;;;64.85;32.15;;;;;;;0.76;100.00;98234.45;1685722;85;20992;-83
2022/11/09 01:07:09;;;;;;;60.33;30.92;;;;;;;0.71;100.00;98227.63;1685502;83;20973;-81
2022/11/09 01:09:36;;;;;;;56.80;31.00;;;;;;;0.74;100.00;98236.52;1685798;85;21022;-84
2022/11/09 01:12:03;;;;;;;71.50;33.48;;;;;;;0.71;100.00;98224.95;1685469;84;21001;-83
2022/11/09 01:14:30;;;;;;;57.33;31.82;;;;;;;0.69;100.00;98228.35;1685871;84;21055;-80
2022/11/09 01:16:57;;;;;;;49.70;27.60;;;;;;;0.63;100.00;98225.70;1685465;85;20997;-84
2022/11/09 01:19:24;;;;;;;47.60;25.52;;;;;;;0.61;100.00;98218.44;1688088;83;21421;-81
2022/11/09 01:21:51;;;;;;;58.28;32.08;;;;;;;0.53;100.00;98214.97;1712668;83;21030;-83
2022/11/09 01:24:18;;;;;;;72.58;38.35;;;;;;;0.42;100.00;98214.27;1712461;82;20974;-80
2022/11/09 01:26:44;;;;;;;58.33;30.72;;;;;;;0.41;100.00;98217.15;1712485;83;21065;-80
2022/11/09 01:29:11;;;;;;;56.80;30.52;;;;;;;0.40;100.00;98216.84;1712620;82;21006;-81
2022/11/09 01:31:38;;;;;;;58.60;30.80;;;;;;;0.44;100.00;98202.08;1725572;82;21401;-83
2022/11/09 01:34:05;;;;;;;51.37;26.97;;;;;;;0.46;100.00;98205.35;1738946;81;21523;-83
2022/11/09 01:36:32;;;;;;;50.52;24.80;;;;;;;0.49;100.00;98204.41;1738879;82;21005;-80
2022/11/09 01:38:59;;;;;;;46.58;23.22;;;;;;;0.49;100.00;98203.59;1739098;81;21012;-80
2022/11/09 01:41:27;;;;;;;52.38;25.45;;;;;;;0.54;100.00;98196.61;1738897;82;20969;-81
2022/11/09 01:44:03;;;;;;;45.92;25.30;;;;;;;0.58;100.00;98196.98;1719931;82;21012;-83
2022/11/09 01:46:41;;;;;;;49.90;25.40;;;;;;;0.62;100.00;98199.55;1739101;82;20984;-84
2022/11/09 01:49:22;;;;;;;60.98;33.92;;;;;;;0.70;100.00;98199.31;1738809;81;20996;-80
2022/11/09 01:52:00;;;;;;;41.20;24.37;;;;;;;0.68;100.00;98196.02;1738380;82;21004;-80
2022/11/09 01:54:30;;;;;;;34.58;18.65;;;;;;;0.68;100.00;98185.34;1738969;81;20961;-82
2022/11/09 01:57:01;;;;;;;37.85;19.20;;;;;;;0.62;100.00;98180.88;1738932;82;21032;-80
2022/11/09 01:59:32;;;;;;;34.58;18.60;;;;;;;0.68;100.00;98180.53;1738948;81;21641;-80
2022/11/09 02:01:59;;;;;;;39.20;19.48;;;;;;;0.77;100.00;98184.59;1720107;82;21032;-80
2022/11/09 02:04:34;;;;;;;39.03;21.55;;;;;;;0.75;100.00;98178.14;1738780;81;20992;-81
2022/11/09 02:07:01;;;;;;;33.90;16.80;;;;;;;0.76;100.00;98170.95;1738058;82;20992;-81
2022/11/09 02:09:42;;;;;;;36.80;18.85;;;;;;;0.77;100.00;98179.25;1738888;81;21055;-81
2022/11/09 02:12:09;;;;;;;37.38;19.85;;;;;;;0.73;100.00;98179.39;1739048;81;20989;-83
2022/11/09 02:14:36;;;;;;;39.95;19.00;;;;;;;0.73;100.00;98178.87;1739114;82;21009;-80
2022/11/09 02:17:03;;;;;;;33.10;16.45;;;;;;;0.76;100.00;98180.28;1738909;82;21004;-82
2022/11/09 02:19:30;;;;;;;30.62;16.45;;;;;;;0.74;100.00;98184.50;1735985;82;21552;-83
2022/11/09 02:21:57;;;;;;;36.75;18.57;;;;;;;0.70;100.00;98182.49;1714196;83;21002;-83
2022/11/09 02:24:24;;;;;;;29.15;16.62;;;;;;;0.66;100.00;98178.08;1713820;83;21049;-80
2022/11/09 02:26:51;;;;;;;32.90;18.27;;;;;;;0.56;100.00;98176.39;1714213;83;21041;-80
2022/11/09 02:29:28;;;;;;;42.05;21.07;;;;;;;0.45;100.00;98182.39;1714102;83;20966;-83
2022/11/09 02:31:59;;;;;;;34.58;20.23;;;;;;;0.36;100.00;98182.32;1704868;83;21021;-83
2022/11/09 02:34:25;;;;;;;35.98;20.00;;;;;;;0.38;100.00;98181.59;1699085;84;21013;-83
2022/11/09 02:36:52;;;;;;;31.57;18.12;;;;;;;0.41;100.00;98181.16;1699210;84;21899;-80
2022/11/09 02:39:22;;;;;;;36.68;18.23;;;;;;;0.42;100.00;98169.46;1698993;84;21002;-83
2022/11/09 02:41:58;;;;;;;40.65;24.30;;;;;;;0.39;100.00;98175.22;1699239;84;20994;-80
2022/11/09 02:44:25;;;;;;;32.75;18.60;;;;;;;0.33;100.00;98169.39;1679157;84;21458;-83
2022/11/09 02:46:52;;;;;;;34.43;17.52;;;;;;;0.36;100.00;98164.99;1679263;84;21031;-83
2022/11/09 02:49:19;;;;;;;35.58;19.23;;;;;;;0.31;100.00;98162.94;1699220;84;21711;-82
2022/11/09 02:51:46;;;;;;;32.73;17.60;;;;;;;0.30;100.00;98159.16;1699219;83;21005;-84
2022/11/09 02:54:13;;;;;;;35.20;18.67;;;;;;;0.30;100.00;98173.30;1699069;83;21025;-82
2022/11/09 02:56:40;;;;;;;32.93;18.48;;;;;;;0.31;100.00;98168.79;1699336;83;21496;-79
2022/11/09 02:59:06;;;;;;;44.85;19.65;;;;;;;0.34;100.00;98168.36;1699384;83;20969;-80
2022/11/09 03:01:33;;;;;;;37.53;18.73;;;;;;;0.34;100.00;98175.84;1699212;83;20999;-78
2022/11/09 03:04:00;;;;;;;35.10;16.57;;;;;;;0.34;100.00;98167.02;1699281;83;20982;-79
2022/11/09 03:06:33;;;;;;;31.97;17.25;;;;;;;0.30;100.00;98174.64;1699302;83;20981;-82
2022/11/09 03:09:06;;;;;;;31.90;17.52;;;;;;;0.27;100.00;98175.06;1699159;84;21457;-79
2022/11/09 03:11:33;;;;;;;32.90;16.37;;;;;;;0.22;100.00;98177.02;1698820;84;20997;-82
2022/11/09 03:14:00;;;;;;;33.10;16.93;;;;;;;0.19;100.00;98173.45;1699217;84;21898;-82
2022/11/09 03:16:27;;;;;;;28.45;16.62;;;;;;;0.20;100.00;98173.75;1699064;83;21439;-78
2022/11/09 03:18:54;;;;;;;37.40;16.67;;;;;;;0.19;100.00;98171.30;1699245;84;21076;-78
2022/11/09 03:21:23;;;;;;;29.37;16.95;;;;;;;0.17;100.00;98173.33;1711452;83;21034;-82
2022/11/09 03:23:50;;;;;;;30.17;17.15;;;;;;;0.13;100.00;98172.94;1712658;82;20994;-79
2022/11/09 03:26:17;;;;;;;34.03;16.60;;;;;;;0.10;100.00;98170.70;1712409;83;21452;-81
2022/11/09 03:28:44;;;;;;;36.45;17.17;;;;;;;0.08;100.00;98170.07;1712644;82;20997;-79
2022/11/09 03:31:11;;;;;;;35.38;18.20;;;;;;;0.09;100.00;98171.73;1712884;83;21042;-82
2022/11/09 03:33:38;;;;;;;34.80;19.90;;;;;;;0.08;100.00;98173.25;1714310;83;21392;-82
2022/11/09 03:36:05;;;;;;;32.70;17.77;;;;;;;0.10;100.00;98172.04;1714339;83;21443;-79
2022/11/09 03:38:32;;;;;;;31.02;16.17;;;;;;;0.12;100.00;98169.98;1714172;83;21435;-79
2022/11/09 03:40:59;;;;;;;33.48;18.45;;;;;;;0.17;100.00;98178.66;1714316;83;21031;-82
2022/11/09 03:43:29;;;;;;;30.43;15.08;;;;;;;0.21;100.00;98175.38;1714279;82;21043;-78
2022/11/09 03:45:56;;;;;;;29.95;15.23;;;;;;;0.24;100.00;98178.95;1714269;82;20978;-82
2022/11/09 03:48:23;;;;;;;30.50;16.93;;;;;;;0.28;100.00;98179.37;1714257;83;20991;-82
2022/11/09 03:50:50;;;;;;;34.70;15.63;;;;;;;0.34;100.00;98169.17;1714378;83;21011;-79
2022/11/09 03:53:17;;;;;;;35.40;16.05;;;;;;;0.34;100.00;98173.69;1713911;83;21495;-79
2022/11/09 03:55:44;;;;;;;31.02;16.40;;;;;;;0.30;100.00;98171.16;1714205;83;21061;-81
2022/11/09 03:58:12;;;;;;;29.27;16.50;;;;;;;0.22;100.00;98173.53;1714009;83;20983;-79
2022/11/09 04:00:39;;;;;;;28.60;15.45;;;;;;;0.18;100.00;98172.33;1714071;83;21046;-82
2022/11/09 04:03:05;;;;;;;36.55;17.45;;;;;;;0.16;100.00;98170.36;1714001;83;21027;-79
2022/11/09 04:05:32;;;;;;;29.70;14.53;;;;;;;0.11;100.00;98171.52;1714170;83;21431;-79
2022/11/09 04:07:59;;;;;;;31.25;16.02;;;;;;;0.10;100.00;98173.38;1713985;82;20983;-78
2022/11/09 04:10:26;;;;;;;34.88;17.85;;;;;;;0.13;100.00;98166.80;1714157;83;21054;-79
2022/11/09 04:12:53;;;;;;;31.65;17.70;;;;;;;0.17;100.00;98165.34;1714074;83;21006;-79
2022/11/09 04:15:20;;;;;;;30.65;17.65;;;;;;;0.21;100.00;98159.91;1714220;83;21446;-79
2022/11/09 04:18:00;;;;;;;27.00;16.45;;;;;;;0.26;100.00;98160.92;1713925;83;21440;-79
2022/11/09 04:20:29;;;;;;;31.30;15.90;;;;;;;0.25;100.00;98155.78;1716863;83;20963;-79
2022/11/09 04:23:02;;;;;;;28.05;16.30;;;;;;;0.26;100.00;98156.11;1719128;83;21039;-82
2022/11/09 04:25:34;;;;;;;37.75;17.27;;;;;;;0.26;100.00;98158.26;1719375;83;21011;-79
2022/11/09 04:28:02;;;;;;;34.60;16.02;;;;;;;0.22;100.00;98158.88;1719127;83;21013;-82
2022/11/09 04:30:31;;;;;;;34.30;16.45;;;;;;;0.19;100.00;98156.64;1719134;83;21044;-82
2022/11/09 04:32:58;;;;;;;27.10;15.23;;;;;;;0.12;100.00;98158.50;1714118;82;23965;-78
2022/11/09 04:35:27;;;;;;;29.57;15.98;;;;;;;0.10;100.00;98157.90;1713172;83;21037;-81
2022/11/09 04:38:00;;;;;;;28.87;16.20;;;;;;;0.12;100.00;98159.83;1712768;82;20978;-82
2022/11/09 04:40:29;;;;;;;30.02;16.27;;;;;;;0.15;100.00;98155.41;1712719;83;21667;-82
2022/11/09 04:43:00;;;;;;;30.88;16.95;;;;;;;0.14;100.00;98155.10;1712592;82;21481;-79
2022/11/09 04:45:27;;;;;;;34.13;16.20;;;;;;;0.16;100.00;98147.20;1712683;83;21487;-79
2022/11/09 04:47:58;;;;;;;36.42;15.83;;;;;;;0.17;100.00;98154.67;1668920;83;21029;-79
2022/11/09 04:50:25;;;;;;;29.72;15.65;;;;;;;0.16;100.00;98155.19;1712825;83;21514;-82
2022/11/09 04:52:52;;;;;;;26.95;13.90;;;;;;;0.19;100.00;98148.64;1712548;82;21016;-79
2022/11/09 04:55:19;;;;;;;32.13;16.00;;;;;;;0.18;100.00;98156.34;1712740;83;21018;-81
2022/11/09 04:57:46;;;;;;;29.12;13.85;;;;;;;0.19;100.00;98149.98;1712569;82;21002;-82
2022/11/09 05:00:13;;;;;;;27.75;14.45;;;;;;;0.21;100.00;98152.73;1712664;83;21442;-79
2022/11/09 05:02:40;;;;;;;26.97;14.03;;;;;;;0.23;100.00;98147.18;1712634;82;21010;-78
2022/11/09 05:05:07;;;;;;;27.98;15.00;;;;;;;0.20;100.00;98148.43;1712859;83;21006;-82
2022/11/09 05:07:34;;;;;;;30.35;15.13;;;;;;;0.22;100.00;98149.55;1712510;82;21013;-80
2022/11/09 05:10:01;;;;;;;30.90;13.45;;;;;;;0.21;100.00;98143.91;1692445;83;20978;-78
2022/11/09 05:12:28;;;;;;;24.32;13.75;;;;;;;0.21;100.00;98144.73;1712620;82;21529;-79
2022/11/09 05:14:54;;;;;;;31.57;16.65;;;;;;;0.19;100.00;98146.80;1712791;83;21075;-82
2022/11/09 05:17:21;;;;;;;27.13;14.13;;;;;;;0.20;100.00;98136.95;1712651;82;21012;-79
2022/11/09 05:19:48;;;;;;;27.22;13.93;;;;;;;0.19;100.00;98133.98;1712735;83;21006;-82
2022/11/09 05:25:01;;;;;;;27.55;15.03;;;;;;;0.18;100.00;98137.17;1712472;83;21477;-79
2022/11/09 05:27:28;;;;;;;31.02;16.95;;;;;;;0.18;100.00;98135.02;1712387;82;21066;-82
2022/11/09 05:29:55;;;;;;;28.25;15.32;;;;;;;0.21;100.00;98139.40;1712803;83;21619;-78
2022/11/09 05:32:21;;;;;;;31.50;15.68;;;;;;;0.23;100.00;98142.66;1733445;81;20962;-82
2022/11/09 05:34:48;;;;;;;29.80;15.25;;;;;;;0.28;100.00;98146.05;1739316;82;21028;-79
2022/11/09 05:37:16;;;;;;;28.32;16.17;;;;;;;0.32;100.00;98148.58;1738938;81;21016;-82
2022/11/09 05:39:43;;;;;;;23.40;13.77;;;;;;;0.36;100.00;98148.48;1739409;82;20969;-79
2022/11/09 05:42:10;;;;;;;29.20;14.90;;;;;;;0.37;100.00;98148.78;1685571;83;21266;-82
2022/11/09 05:44:37;;;;;;;24.75;15.68;;;;;;;0.40;100.00;98144.34;1685484;85;21480;-78
2022/11/09 05:47:04;;;;;;;25.97;15.98;;;;;;;0.40;100.00;98143.02;1685628;83;21005;-79
2022/11/09 05:49:31;;;;;;;29.87;16.50;;;;;;;0.38;100.00;98145.08;1685698;85;21040;-78
2022/11/09 05:51:58;;;;;;;32.23;17.73;;;;;;;0.21;100.00;98146.06;1685580;85;21175;-78
2022/11/09 05:54:25;;;;;;;35.15;21.27;;;;;;;0.20;100.00;98149.77;1685413;83;21849;-82
2022/11/09 05:56:51;;;;;;;36.83;19.98;;;;;;;0.22;100.00;98150.88;1685537;85;20954;-82
2022/11/09 05:59:18;;;;;;;37.88;19.65;;;;;;;0.26;100.00;98158.26;1685318;83;21048;-79
2022/11/09 06:01:45;;;;;;;27.50;17.10;;;;;;;0.31;100.00;98155.46;1701692;83;21092;-82
2022/11/09 06:04:12;;;;;;;41.02;19.80;;;;;;;0.39;100.00;98156.56;1710440;82;21010;-82
2022/11/09 06:06:39;;;;;;;39.78;21.17;;;;;;;0.47;100.00;98158.98;1713638;83;21739;-82
2022/11/09 06:09:06;;;;;;;31.75;18.20;;;;;;;0.52;100.00;98156.00;1712605;82;21045;-79
2022/11/09 06:11:33;;;;;;;36.80;17.20;;;;;;;0.56;100.00;98151.05;1714391;82;21012;-82
2022/11/09 06:14:00;;;;;;;37.42;21.50;;;;;;;0.55;100.00;98150.75;1713845;82;21045;-79
2022/11/09 06:16:27;;;;;;;31.33;17.85;;;;;;;0.54;100.00;98157.12;1714351;83;20946;-81
2022/11/09 06:18:54;;;;;;;34.53;18.45;;;;;;;0.54;100.00;98157.94;1704660;83;21038;-79
2022/11/09 06:21:21;;;;;;;32.70;16.67;;;;;;;0.56;100.00;98164.38;1683113;83;20970;-79
2022/11/09 06:23:48;;;;;;;35.05;19.02;;;;;;;0.56;100.00;98164.38;1679996;83;21005;-82
2022/11/09 06:26:15;;;;;;;39.63;18.75;;;;;;;0.62;100.00;98168.88;1690069;83;20999;-79
2022/11/09 06:28:42;;;;;;;33.30;18.75;;;;;;;0.64;100.00;98178.81;1689704;83;21050;-82
2022/11/09 06:31:13;;;;;;;39.35;19.35;;;;;;;0.68;100.00;98183.20;1695665;83;21055;-78
2022/11/09 06:33:40;;;;;;;37.08;20.90;;;;;;;0.76;100.00;98178.95;1713795;82;20975;-79
2022/11/09 06:36:09;;;;;;;39.53;19.85;;;;;;;0.88;100.00;98171.11;1714176;83;21395;-82
2022/11/09 06:38:35;;;;;;;38.92;18.87;;;;;;;0.94;100.00;98165.75;1704170;83;21016;-79
2022/11/09 06:41:02;;;;;;;48.92;28.45;;;;;;;1.00;100.00;98167.53;1714273;83;20990;-82
2022/11/09 06:43:29;;;;;;;58.42;28.98;;;;;;;1.10;100.00;98166.54;1712882;83;21880;-85
2022/11/09 06:45:56;;;;;;;55.30;29.60;;;;;;;1.26;100.00;98169.73;1714549;82;21457;-78
2022/11/09 06:48:23;;;;;;;48.10;24.18;;;;;;;1.27;100.00;98166.02;1698663;82;20989;-79
2022/11/09 06:50:50;;;;;;;56.90;27.73;;;;;;;1.58;100.00;98171.86;1701045;83;21037;-78
2022/11/09 06:53:18;;;;;;;56.40;26.42;;;;;;;1.73;100.00;98160.84;1696844;83;21009;-82
2022/11/09 06:55:45;;;;;;;53.75;24.87;;;;;;;1.98;100.00;98169.65;1708969;83;21881;-79
2022/11/09 06:58:18;;;;;;;44.80;25.77;;;;;;;2.14;100.00;98157.56;1713953;83;20954;-79
2022/11/09 07:00:43;;;;;;;41.50;23.15;;;;;;;2.11;100.00;98168.68;1706693;82;21021;-79
2022/11/09 07:03:14;;;;;;;45.92;22.40;;;;;;;2.05;100.00;98167.73;1690590;83;21422;-82
2022/11/09 07:05:41;;;;;;;47.20;25.12;;;;;;;2.07;100.00;98170.17;1694144;83;21103;-82
2022/11/09 07:08:08;;;;;;;52.55;25.75;;;;;;;2.06;100.00;98160.53;1706015;82;21072;-79
2022/11/09 07:10:35;;;;;;;52.43;28.52;;;;;;;2.04;100.00;98159.91;1702628;82;21001;-82
2022/11/09 07:13:02;;;;;;;45.63;28.10;;;;;;;2.01;100.00;98167.05;1708604;82;20985;-79
2022/11/09 07:15:29;;;;;;;49.27;28.87;;;;;;;1.94;100.00;98164.43;1707560;82;21006;-82
2022/11/09 07:17:59;;;;;;;48.02;26.50;;;;;;;1.98;100.00;98166.45;1716543;82;21448;-79
2022/11/09 07:20:26;;;;;;;41.40;24.92;;;;;;;1.97;100.00;98170.69;1704656;82;21679;-79
2022/11/09 07:22:53;;;;;;;36.08;21.40;;;;;;;2.04;100.00;98164.73;1703547;83;21067;-79
2022/11/09 07:25:20;;;;;;;39.45;19.90;;;;;;;2.10;100.00;98159.03;1696066;83;21023;-82
2022/11/09 07:27:47;;;;;;;47.23;21.87;;;;;;;2.20;100.00;98160.14;1714870;82;21009;-82
2022/11/09 07:30:14;;;;;;;115.60;64.42;;;;;;;2.26;100.00;98159.27;1708815;82;20991;-82
2022/11/09 07:32:41;;;;;;;172.05;84.35;;;;;;;2.31;100.00;98156.42;1707962;82;20968;-79
2022/11/09 07:35:08;;;;;;;45.65;27.35;;;;;;;2.42;100.00;98156.52;1713688;82;20935;-80
2022/11/09 07:37:35;;;;;;;42.43;22.50;;;;;;;2.55;100.00;98155.00;1708906;82;21422;-79
2022/11/09 07:40:02;;;;;;;48.20;25.92;;;;;;;2.63;100.00;98157.89;1709275;83;20971;-82
2022/11/09 07:42:29;;;;;;;55.40;31.20;;;;;;;2.69;100.00;98159.67;1735810;80;22604;-80
2022/11/09 07:44:56;;;;;;;82.75;46.30;;;;;;;2.79;100.00;98162.63;1723663;82;21160;-83
2022/11/09 07:47:23;;;;;;;93.75;48.00;;;;;;;2.88;100.00;98160.45;1713884;82;20978;-79
2022/11/09 07:49:50;;;;;;;56.98;33.35;;;;;;;2.96;100.00;98157.45;1709774;83;21057;-82
2022/11/09 07:52:17;;;;;;;162.60;87.75;;;;;;;3.10;100.00;98151.41;1710582;82;21329;-79
2022/11/09 07:54:44;;;;;;;169.35;98.30;;;;;;;3.25;100.00;98152.33;1708136;82;21011;-79
2022/11/09 07:57:10;;;;;;;108.67;67.78;;;;;;;3.34;100.00;98150.42;1715319;82;21455;-79
2022/11/09 07:59:38;;;;;;;59.93;37.00;;;;;;;3.50;100.00;98144.08;1705696;82;21016;-80
2022/11/09 08:02:05;;;;;;;160.40;90.30;;;;;;;3.64;100.00;98142.83;1721230;82;21012;-79
2022/11/09 08:04:32;;;;;;;252.25;137.75;;;;;;;3.78;100.00;98146.92;1711504;82;20977;-79
2022/11/09 08:06:59;;;;;;;283.25;136.20;;;;;;;3.92;100.00;98138.09;1715514;82;21438;-79
2022/11/09 08:09:27;;;;;;;72.10;41.30;;;;;;;4.02;100.00;98130.30;1708832;82;20998;-82
2022/11/09 08:11:54;;;;;;;63.15;34.25;;;;;;;4.18;100.00;98132.77;1707137;82;21013;-82
2022/11/09 08:14:21;;;;;;;47.70;29.67;;;;;;;4.34;100.00;98134.72;1717727;82;20970;-82
2022/11/09 08:16:47;;;;;;;36.53;19.70;;;;;;;4.47;100.00;98130.98;1718329;82;21068;-82
2022/11/09 08:19:14;;;;;;;32.17;18.02;;;;;;;4.64;100.00;98127.83;1709548;82;21018;-82
2022/11/09 08:21:41;;;;;;;33.65;20.75;;;;;;;4.80;100.00;98122.23;1690984;82;21049;-79
2022/11/09 08:24:08;;;;;;;31.75;18.95;;;;;;;4.94;100.00;98124.08;1688679;83;21064;-83
2022/11/09 08:26:35;;;;;;;29.55;16.67;;;;;;;5.08;100.00;98112.81;1655201;85;21545;-82
2022/11/09 08:29:02;;;;;;;28.77;17.25;;;;;;;5.22;100.00;98111.17;1697263;83;21033;-83
2022/11/09 08:31:29;;;;;;;40.05;21.25;;;;;;;5.39;100.00;98112.00;1694897;82;21022;-79
2022/11/09 08:33:56;;;;;;;36.90;20.10;;;;;;;5.50;100.00;98111.09;1703389;82;22068;-79
2022/11/09 08:36:25;;;;;;;37.00;21.73;;;;;;;5.64;100.00;98104.87;1710110;82;21030;-79
2022/11/09 08:38:51;;;;;;;35.73;21.42;;;;;;;5.77;100.00;98103.70;1735822;82;21432;-79
2022/11/09 08:41:18;;;;;;;41.10;21.75;;;;;;;5.92;100.00;98102.08;1707733;82;20987;-83
2022/11/09 08:43:45;;;;;;;35.83;21.60;;;;;;;6.04;100.00;98106.00;1714499;82;21009;-82
2022/11/09 08:46:12;;;;;;;37.33;22.45;;;;;;;6.19;100.00;98102.70;1711362;82;21714;-83
2022/11/09 08:48:39;;;;;;;52.23;33.25;;;;;;;6.32;100.00;98100.16;1705976;82;21482;-83
2022/11/09 08:51:06;;;;;;;65.37;35.85;;;;;;;6.46;100.00;98104.93;1712905;82;21001;-82
2022/11/09 08:53:33;;;;;;;86.12;48.00;;;;;;;6.60;100.00;98094.61;1701569;82;21485;-79
2022/11/09 08:56:00;;;;;;;60.45;31.57;;;;;;;6.73;100.00;98096.89;1716276;83;21071;-80
2022/11/09 08:58:27;;;;;;;42.25;25.37;;;;;;;6.85;100.00;98086.52;1711937;82;21015;-82
2022/11/09 09:00:54;;;;;;;39.27;23.57;;;;;;;7.01;100.00;98091.00;1710843;82;21430;-79
2022/11/09 09:03:21;;;;;;;165.73;71.92;;;;;;;7.14;100.00;98091.92;1709824;82;21153;-79
2022/11/09 09:05:47;;;;;;;75.47;41.90;;;;;;;7.27;100.00;98087.47;1704515;82;21033;-79
2022/11/09 09:08:14;;;;;;;152.68;79.27;;;;;;;7.42;100.00;98085.41;1711614;82;21061;-80
2022/11/09 09:10:41;;;;;;;128.68;69.50;;;;;;;7.59;100.00;98086.63;1716999;82;21101;-83
2022/11/09 09:13:09;;;;;;;41.42;23.07;;;;;;;7.77;100.00;98075.95;1737187;80;20978;-80
2022/11/09 09:15:36;;;;;;;37.42;22.05;;;;;;;7.94;100.00;98080.65;1708531;82;21056;-83
2022/11/09 09:18:03;;;;;;;56.15;31.80;;;;;;;8.15;100.00;98073.49;1710163;82;21152;-83
2022/11/09 09:20:30;;;;;;;59.80;34.80;;;;;;;8.50;100.00;98065.30;1711494;82;21052;-80
2022/11/09 09:22:58;;;;;;;51.30;28.73;;;;;;;8.50;100.00;98065.30;1709546;81;21496;-83
2022/11/09 09:25:26;;;;;;;39.75;24.27;;;;;;;8.75;100.00;98069.42;1704432;82;22271;-80
2022/11/09 09:27:52;;;;;;;51.45;28.65;;;;;;;8.94;100.00;98062.44;1712237;82;22185;-80
2022/11/09 09:30:19;;;;;;;43.70;25.20;;;;;;;9.14;100.00;98063.53;1707132;82;21108;-83
2022/11/09 09:32:46;;;;;;;37.17;20.40;;;;;;;9.35;100.00;98065.73;1710447;82;21005;-80
2022/11/09 09:35:13;;;;;;;57.33;33.45;;;;;;;9.55;100.00;98058.95;1711479;82;21505;-83
2022/11/09 09:37:41;;;;;;;61.42;36.13;;;;;;;9.78;100.00;98057.03;1706796;82;21010;-80
2022/11/09 09:40:14;;;;;;;28.40;17.98;;;;;;;10.01;100.00;98067.01;1699128;83;20981;-83
2022/11/09 09:42:42;;;;;;;30.75;16.02;;;;;;;10.23;100.00;98059.38;1707231;82;21424;-80
2022/11/09 09:45:16;;;;;;;29.52;15.48;;;;;;;10.40;100.00;98054.43;1699171;82;21828;-80
2022/11/09 09:48:33;;;;;;;28.20;15.70;;;;;;;10.61;100.00;98055.16;1705627;82;21886;-80
2022/11/09 09:51:20;;;;;;;77.50;46.53;;;;;;;10.81;100.00;98052.07;1707688;82;22103;-80
2022/11/09 09:53:56;;;;;;;45.70;27.55;;;;;;;11.07;100.00;98048.65;1702976;82;21021;-80
2022/11/09 09:56:27;;;;;;;32.23;19.52;;;;;;;11.24;100.00;98044.45;1704593;82;21013;-81
2022/11/09 09:59:20;;;;;;;55.38;25.72;;;;;;;11.38;100.00;98039.20;1709569;82;21587;-83
2022/11/09 10:01:47;;;;;;;53.65;23.67;;;;;;;11.53;100.00;98037.69;1705703;82;21682;-82
2022/11/09 10:04:22;;;;;;;38.73;21.90;;;;;;;11.66;100.00;98037.58;1709875;80;21413;-83
2022/11/09 10:07:27;;;;;;;37.83;20.92;;;;;;;11.78;100.00;98040.70;1703943;81;21031;-84
2022/11/09 10:10:34;;;;;;;37.67;21.40;;;;;;;11.88;100.00;98039.85;1707263;82;20981;-83
2022/11/09 10:13:38;;;;;;;30.00;19.17;;;;;;;11.99;100.00;98036.47;1704139;82;21435;-80
2022/11/09 10:16:20;;;;;;;34.35;17.77;;;;;;;12.08;100.00;98037.45;1706155;82;21045;-80
2022/11/09 10:19:44;;;;;;;25.48;16.10;;;;;;;12.14;100.00;98039.83;1706459;83;21083;-80
2022/11/09 10:22:36;;;;;;;20.17;12.95;;;;;;;12.20;100.00;98038.40;1710315;82;21035;-84
2022/11/09 10:25:15;;;;;;;23.42;16.55;;;;;;;12.29;100.00;98040.18;1707561;82;21009;-80
2022/11/09 10:27:53;;;;;;;21.40;13.78;;;;;;;12.41;100.00;98045.22;1703287;82;21521;-83
2022/11/09 10:30:21;;;;;;;21.02;12.65;;;;;;;12.48;100.00;98034.81;1703617;82;21388;-84
2022/11/09 10:32:53;;;;;;;19.98;11.43;;;;;;;12.57;100.00;98033.61;1707290;82;22133;-83
2022/11/09 10:35:39;;;;;;;21.07;10.45;;;;;;;12.64;100.00;98033.48;1708829;82;21585;-80
2022/11/09 10:38:08;;;;;;;15.75;10.28;;;;;;;12.72;100.00;98036.10;1707034;82;21149;-80
2022/11/09 10:40:51;;;;;;;11.73;7.92;;;;;;;12.80;100.00;98033.28;1707788;83;21040;-83
2022/11/09 10:43:18;;;;;;;13.48;8.95;;;;;;;12.81;96.32;98029.45;1680716;82;21002;-83
2022/11/09 10:45:46;;;;;;;14.47;8.98;;;;;;;12.91;97.13;98023.89;1710602;82;20926;-80
2022/11/09 10:48:13;;;;;;;27.48;15.83;;;;;;;12.96;99.93;98030.59;1694056;82;20938;-80
2022/11/09 10:50:53;;;;;;;13.22;8.43;;;;;;;12.99;97.21;98028.67;1708523;82;21453;-80
2022/11/09 10:53:26;;;;;;;19.70;12.07;;;;;;;13.11;96.27;98026.84;1708025;82;21104;-80
2022/11/09 10:56:14;;;;;;;17.70;11.30;;;;;;;13.14;98.85;98024.33;1710673;82;21027;-82
2022/11/09 10:58:50;;;;;;;15.00;8.95;;;;;;;13.19;98.01;98038.42;1701037;82;20980;-83
2022/11/09 11:01:24;;;;;;;28.12;18.95;;;;;;;13.22;97.37;98033.77;1645497;85;21077;-83
2022/11/09 11:03:54;;;;;;;18.65;9.30;;;;;;;13.25;97.23;98034.56;1702511;82;21406;-83
2022/11/09 11:06:26;;;;;;;12.98;8.70;;;;;;;13.28;96.76;98025.79;1694756;83;21000;-83
2022/11/09 11:09:11;;;;;;;10.88;8.05;;;;;;;13.30;86.05;98024.12;1710406;82;22008;-83
2022/11/09 11:11:38;;;;;;;13.90;7.90;;;;;;;13.39;94.41;98025.06;1689718;84;21016;-79
2022/11/09 11:14:18;;;;;;;13.10;8.15;;;;;;;13.43;93.76;98024.19;1698762;82;21057;-83
2022/11/09 11:16:45;;;;;;;14.13;8.63;;;;;;;13.48;94.19;98017.27;1708229;82;20997;-83
2022/11/09 11:19:31;;;;;;;13.93;8.58;;;;;;;13.48;88.81;98022.72;1721746;80;21060;-83
2022/11/09 11:22:17;;;;;;;13.68;7.78;;;;;;;13.52;93.44;98021.03;1708922;82;21745;-83
2022/11/09 11:24:57;;;;;;;9.35;5.58;;;;;;;13.54;93.46;98014.73;1717497;82;20985;-80
2022/11/09 11:27:35;;;;;;;9.68;5.75;;;;;;;13.71;90.51;98018.25;1715003;81;21180;-80
2022/11/09 11:30:13;;;;;;;9.90;4.70;;;;;;;13.91;88.80;98018.41;1711495;82;21053;-83